Glacier National Park, MT

5:50 PM MDT on September 02, 2015 (GMT -0600)
Cut Bank Municipal | | Change Station
CLOSE
Current Station
Airport
Location: Cut Bank,
Elevation: 3855 ft
Nearby Weather Stations

Elev 3855 ft 48.61 °N, 112.38 °W | Updated 54 minutes ago

Clear
Clear
70 °F
Feels Like 70 °F
N
24
Wind Variable Wind from West
Gusts 34 mph

Today
High -- | Low -- °F
--% Chance of Precip.
Yesterday
High -- | Low -- °F
Precip. -- in
6:52 AM 8:14 PM
Waning Gibbous, 76% visible
Pressure 29.71 in
Visibility 10.0 miles
Clouds Clear
Dew Point 38 °F
Humidity 31%
Rainfall 0.00 in
Snow Depth Not available.
UV 3 out of 12
Pollen 7.90 out of 12
Air Quality Not available.
Flu Activity Not available.
METAR KCTB 022256Z AUTO 27021G30KT 10SM CLR 21/03 A2978 RMK AO2 PK WND 27032/2223 SLP061 T02110033
Pressure 29.71 in
Visibility 10.0 miles
Clouds Clear
Dew Point 38 °F
Humidity 31%
Rainfall 0.00 in
Snow Depth Not available.
UV 3 out of 12
Pollen 7.90 out of 12
Air Quality Not available.
Flu Activity Not available.
METAR KCTB 022256Z AUTO 27021G30KT 10SM CLR 21/03 A2978 RMK AO2 PK WND 27032/2223 SLP061 T02110033

10-Day Weather Forecast

×

Almanac

Astronomy

Sep. 02, 2015 Rise Set
Actual Time
Civil Twilight
Nautical Twilight
Astronomical Twilight
Moon
Length of Visible Light
Length of Day
Tomorrow will be .
, % of the Moon is Illuminated

Today's Extremes

State Highs State Lows

Community

WunderPhotos

Upload Photos

1,851,841 photos uploaded!

WunderBlogs® & News

Nearby

Air Quality

  Air Quality AQ Index Pollutant
Not available.

Snow Depth

Station Depth Elevation

Earthquake Activity

City Distance Mag. Time & Date
Minimum magnitude displayed is 2.5.

Coastal Water Temperatures

Place Temperature

Stations

Nearby Weather Stations

Station Location Temp. Windchill Dew Point Humidity Wind Precip. Elev Updated Type